sensor_id;sensor_type;location;lat;lon;timestamp;P1;durP1;ratioP1;P2;durP2;ratioP2
66957;SDS011;53892;43.258;-2.932;2023-01-16T00:00:30;3.22;;;0.35;;
66957;SDS011;53892;43.258;-2.932;2023-01-16T00:02:56;0.60;;;0.10;;
66957;SDS011;53892;43.258;-2.932;2023-01-16T00:05:22;2.20;;;0.15;;
66957;SDS011;53892;43.258;-2.932;2023-01-16T00:07:48;0.47;;;0.00;;
66957;SDS011;53892;43.258;-2.932;2023-01-16T00:13:18;3.17;;;0.10;;
66957;SDS011;53892;43.258;-2.932;2023-01-16T00:15:45;1.25;;;0.03;;
66957;SDS011;53892;43.258;-2.932;2023-01-16T00:18:11;0.52;;;0.00;;
66957;SDS011;53892;43.258;-2.932;2023-01-16T00:20:37;0.17;;;0.00;;
66957;SDS011;53892;43.258;-2.932;2023-01-16T00:23:03;0.15;;;0.00;;
66957;SDS011;53892;43.258;-2.932;2023-01-16T00:25:30;1.92;;;0.10;;
66957;SDS011;53892;43.258;-2.932;2023-01-16T00:27:56;0.28;;;0.00;;
66957;SDS011;53892;43.258;-2.932;2023-01-16T00:30:22;1.48;;;0.10;;
66957;SDS011;53892;43.258;-2.932;2023-01-16T00:32:49;2.17;;;0.00;;
66957;SDS011;53892;43.258;-2.932;2023-01-16T00:35:15;1.23;;;0.05;;
66957;SDS011;53892;43.258;-2.932;2023-01-16T00:37:41;3.17;;;0.65;;
66957;SDS011;53892;43.258;-2.932;2023-01-16T00:40:08;0.10;;;0.00;;
66957;SDS011;53892;43.258;-2.932;2023-01-16T00:42:34;1.10;;;0.00;;
66957;SDS011;53892;43.258;-2.932;2023-01-16T00:45:00;2.42;;;0.10;;
66957;SDS011;53892;43.258;-2.932;2023-01-16T00:47:26;1.33;;;0.08;;
66957;SDS011;53892;43.258;-2.932;2023-01-16T00:49:53;1.60;;;0.00;;
66957;SDS011;53892;43.258;-2.932;2023-01-16T00:52:19;1.80;;;0.13;;
66957;SDS011;53892;43.258;-2.932;2023-01-16T00:54:45;3.65;;;0.13;;
66957;SDS011;53892;43.258;-2.932;2023-01-16T00:57:11;0.30;;;0.00;;
66957;SDS011;53892;43.258;-2.932;2023-01-16T00:59:37;0.95;;;0.00;;
66957;SDS011;53892;43.258;-2.932;2023-01-16T01:02:03;0.77;;;0.00;;
66957;SDS011;53892;43.258;-2.932;2023-01-16T01:04:30;0.90;;;0.00;;
66957;SDS011;53892;43.258;-2.932;2023-01-16T01:06:56;2.00;;;0.10;;
66957;SDS011;53892;43.258;-2.932;2023-01-16T01:09:22;0.95;;;0.00;;
66957;SDS011;53892;43.258;-2.932;2023-01-16T01:11:48;0.93;;;0.05;;
66957;SDS011;53892;43.258;-2.932;2023-01-16T01:14:14;6.90;;;0.10;;
66957;SDS011;53892;43.258;-2.932;2023-01-16T01:16:40;1.10;;;0.00;;
66957;SDS011;53892;43.258;-2.932;2023-01-16T01:19:06;3.50;;;0.65;;
66957;SDS011;53892;43.258;-2.932;2023-01-16T01:21:32;3.35;;;0.13;;
66957;SDS011;53892;43.258;-2.932;2023-01-16T01:23:59;5.13;;;0.05;;
66957;SDS011;53892;43.258;-2.932;2023-01-16T01:26:25;0.40;;;0.00;;
66957;SDS011;53892;43.258;-2.932;2023-01-16T01:28:51;1.17;;;0.10;;
66957;SDS011;53892;43.258;-2.932;2023-01-16T01:31:17;0.77;;;0.10;;
66957;SDS011;53892;43.258;-2.932;2023-01-16T01:33:43;0.25;;;0.00;;
66957;SDS011;53892;43.258;-2.932;2023-01-16T01:36:09;5.80;;;0.55;;
66957;SDS011;53892;43.258;-2.932;2023-01-16T01:38:35;1.40;;;0.10;;
66957;SDS011;53892;43.258;-2.932;2023-01-16T01:41:01;0.20;;;0.00;;
66957;SDS011;53892;43.258;-2.932;2023-01-16T01:43:50;5.90;;;0.30;;
66957;SDS011;53892;43.258;-2.932;2023-01-16T01:48:43;3.28;;;0.82;;
66957;SDS011;53892;43.258;-2.932;2023-01-16T01:51:13;1.95;;;0.08;;
66957;SDS011;53892;43.258;-2.932;2023-01-16T01:53:43;2.08;;;0.10;;
66957;SDS011;53892;43.258;-2.932;2023-01-16T01:56:12;2.33;;;0.05;;
66957;SDS011;53892;43.258;-2.932;2023-01-16T01:58:41;2.08;;;0.05;;
66957;SDS011;53892;43.258;-2.932;2023-01-16T02:01:08;1.23;;;0.00;;
66957;SDS011;53892;43.258;-2.932;2023-01-16T02:03:36;2.00;;;0.00;;
66957;SDS011;53892;43.258;-2.932;2023-01-16T02:06:05;2.33;;;0.10;;
66957;SDS011;53892;43.258;-2.932;2023-01-16T02:08:32;2.08;;;0.00;;
66957;SDS011;53892;43.258;-2.932;2023-01-16T02:11:03;0.75;;;0.00;;
66957;SDS011;53892;43.258;-2.932;2023-01-16T02:13:30;2.20;;;0.05;;
66957;SDS011;53892;43.258;-2.932;2023-01-16T02:15:57;0.65;;;0.00;;
66957;SDS011;53892;43.258;-2.932;2023-01-16T02:18:42;0.10;;;0.10;;
66957;SDS011;53892;43.258;-2.932;2023-01-16T02:24:04;1.55;;;0.00;;
66957;SDS011;53892;43.258;-2.932;2023-01-16T02:36:34;0.68;;;0.00;;
66957;SDS011;53892;43.258;-2.932;2023-01-16T02:39:50;7.80;;;0.10;;
66957;SDS011;53892;43.258;-2.932;2023-01-16T02:42:02;3.30;;;0.10;;
66957;SDS011;53892;43.258;-2.932;2023-01-16T02:50:15;5.60;;;0.30;;
66957;SDS011;53892;43.258;-2.932;2023-01-16T02:52:49;2.13;;;0.10;;
66957;SDS011;53892;43.258;-2.932;2023-01-16T02:57:54;1.20;;;0.00;;
66957;SDS011;53892;43.258;-2.932;2023-01-16T03:00:21;0.30;;;0.00;;
66957;SDS011;53892;43.258;-2.932;2023-01-16T03:02:48;4.10;;;0.28;;
66957;SDS011;53892;43.258;-2.932;2023-01-16T03:05:14;3.20;;;0.10;;
66957;SDS011;53892;43.258;-2.932;2023-01-16T03:12:55;2.45;;;0.20;;
66957;SDS011;53892;43.258;-2.932;2023-01-16T03:15:27;2.60;;;0.05;;
66957;SDS011;53892;43.258;-2.932;2023-01-16T03:25:45;0.00;;;0.00;;
66957;SDS011;53892;43.258;-2.932;2023-01-16T03:28:17;0.00;;;0.00;;
66957;SDS011;53892;43.258;-2.932;2023-01-16T03:33:46;0.25;;;0.00;;
66957;SDS011;53892;43.258;-2.932;2023-01-16T03:36:23;5.47;;;0.10;;
66957;SDS011;53892;43.258;-2.932;2023-01-16T03:38:50;4.90;;;0.10;;
66957;SDS011;53892;43.258;-2.932;2023-01-16T03:41:18;0.10;;;0.00;;
66957;SDS011;53892;43.258;-2.932;2023-01-16T03:43:47;3.83;;;0.03;;
66957;SDS011;53892;43.258;-2.932;2023-01-16T03:46:15;5.50;;;0.20;;
66957;SDS011;53892;43.258;-2.932;2023-01-16T03:51:08;0.65;;;0.10;;
66957;SDS011;53892;43.258;-2.932;2023-01-16T03:53:41;7.78;;;0.28;;
66957;SDS011;53892;43.258;-2.932;2023-01-16T03:58:35;0.10;;;0.00;;
66957;SDS011;53892;43.258;-2.932;2023-01-16T04:03:28;4.53;;;0.20;;
66957;SDS011;53892;43.258;-2.932;2023-01-16T04:06:02;7.47;;;0.10;;
66957;SDS011;53892;43.258;-2.932;2023-01-16T04:08:33;5.72;;;0.15;;
66957;SDS011;53892;43.258;-2.932;2023-01-16T04:11:01;1.08;;;0.10;;
66957;SDS011;53892;43.258;-2.932;2023-01-16T04:13:29;6.32;;;0.45;;
66957;SDS011;53892;43.258;-2.932;2023-01-16T04:15:56;3.30;;;0.10;;
66957;SDS011;53892;43.258;-2.932;2023-01-16T04:18:25;5.55;;;1.10;;
66957;SDS011;53892;43.258;-2.932;2023-01-16T04:20:53;3.42;;;0.20;;
66957;SDS011;53892;43.258;-2.932;2023-01-16T04:23:19;6.55;;;0.40;;
66957;SDS011;53892;43.258;-2.932;2023-01-16T04:25:45;0.25;;;0.00;;
66957;SDS011;53892;43.258;-2.932;2023-01-16T04:28:11;1.75;;;0.30;;
66957;SDS011;53892;43.258;-2.932;2023-01-16T04:30:37;7.38;;;0.45;;
66957;SDS011;53892;43.258;-2.932;2023-01-16T04:33:04;3.17;;;0.00;;
66957;SDS011;53892;43.258;-2.932;2023-01-16T04:35:30;7.30;;;0.28;;
66957;SDS011;53892;43.258;-2.932;2023-01-16T04:37:57;2.67;;;0.00;;
66957;SDS011;53892;43.258;-2.932;2023-01-16T04:40:23;0.30;;;0.00;;
66957;SDS011;53892;43.258;-2.932;2023-01-16T04:42:49;0.95;;;0.00;;
66957;SDS011;53892;43.258;-2.932;2023-01-16T04:45:15;8.95;;;0.20;;
66957;SDS011;53892;43.258;-2.932;2023-01-16T04:47:45;2.47;;;0.10;;
66957;SDS011;53892;43.258;-2.932;2023-01-16T04:50:11;2.78;;;0.00;;
66957;SDS011;53892;43.258;-2.932;2023-01-16T04:52:38;2.15;;;0.10;;
66957;SDS011;53892;43.258;-2.932;2023-01-16T04:55:04;1.15;;;0.10;;
66957;SDS011;53892;43.258;-2.932;2023-01-16T04:57:30;0.30;;;0.00;;
66957;SDS011;53892;43.258;-2.932;2023-01-16T04:59:56;2.97;;;0.10;;
66957;SDS011;53892;43.258;-2.932;2023-01-16T05:02:22;4.40;;;0.05;;
66957;SDS011;53892;43.258;-2.932;2023-01-16T05:04:48;4.90;;;0.50;;
66957;SDS011;53892;43.258;-2.932;2023-01-16T05:07:15;0.85;;;0.00;;
66957;SDS011;53892;43.258;-2.932;2023-01-16T05:09:41;9.20;;;0.30;;
66957;SDS011;53892;43.258;-2.932;2023-01-16T05:12:07;9.85;;;0.20;;
66957;SDS011;53892;43.258;-2.932;2023-01-16T05:14:33;3.50;;;0.00;;
66957;SDS011;53892;43.258;-2.932;2023-01-16T05:16:59;0.35;;;0.00;;
66957;SDS011;53892;43.258;-2.932;2023-01-16T05:19:25;2.85;;;0.05;;
66957;SDS011;53892;43.258;-2.932;2023-01-16T05:21:51;5.32;;;0.35;;
66957;SDS011;53892;43.258;-2.932;2023-01-16T05:24:17;7.78;;;0.85;;
66957;SDS011;53892;43.258;-2.932;2023-01-16T05:26:43;8.70;;;0.30;;
66957;SDS011;53892;43.258;-2.932;2023-01-16T05:29:10;3.75;;;0.20;;
66957;SDS011;53892;43.258;-2.932;2023-01-16T05:31:36;1.83;;;0.10;;
66957;SDS011;53892;43.258;-2.932;2023-01-16T05:34:02;5.07;;;0.20;;
66957;SDS011;53892;43.258;-2.932;2023-01-16T05:36:28;3.22;;;0.20;;
66957;SDS011;53892;43.258;-2.932;2023-01-16T05:38:54;5.22;;;0.20;;
66957;SDS011;53892;43.258;-2.932;2023-01-16T05:41:20;0.17;;;0.00;;
66957;SDS011;53892;43.258;-2.932;2023-01-16T05:43:46;1.45;;;0.10;;
66957;SDS011;53892;43.258;-2.932;2023-01-16T05:46:12;0.50;;;0.00;;
66957;SDS011;53892;43.258;-2.932;2023-01-16T05:48:38;1.48;;;0.00;;
66957;SDS011;53892;43.258;-2.932;2023-01-16T05:51:05;0.03;;;0.00;;
66957;SDS011;53892;43.258;-2.932;2023-01-16T05:53:31;0.10;;;0.00;;
66957;SDS011;53892;43.258;-2.932;2023-01-16T05:55:58;0.57;;;0.00;;
66957;SDS011;53892;43.258;-2.932;2023-01-16T05:58:24;2.55;;;0.10;;
66957;SDS011;53892;43.258;-2.932;2023-01-16T06:00:50;1.58;;;0.10;;
66957;SDS011;53892;43.258;-2.932;2023-01-16T06:03:16;12.88;;;0.77;;
66957;SDS011;53892;43.258;-2.932;2023-01-16T06:05:42;10.40;;;0.80;;
66957;SDS011;53892;43.258;-2.932;2023-01-16T06:08:08;19.35;;;1.10;;
66957;SDS011;53892;43.258;-2.932;2023-01-16T06:10:35;24.77;;;1.90;;
66957;SDS011;53892;43.258;-2.932;2023-01-16T06:13:01;17.48;;;1.30;;
66957;SDS011;53892;43.258;-2.932;2023-01-16T06:15:27;16.25;;;0.82;;
66957;SDS011;53892;43.258;-2.932;2023-01-16T06:17:54;15.82;;;1.33;;
66957;SDS011;53892;43.258;-2.932;2023-01-16T06:20:20;5.32;;;0.55;;
66957;SDS011;53892;43.258;-2.932;2023-01-16T06:22:46;9.05;;;0.95;;
66957;SDS011;53892;43.258;-2.932;2023-01-16T06:25:12;12.55;;;0.80;;
66957;SDS011;53892;43.258;-2.932;2023-01-16T06:27:38;15.82;;;1.52;;
66957;SDS011;53892;43.258;-2.932;2023-01-16T06:30:05;13.25;;;1.58;;
66957;SDS011;53892;43.258;-2.932;2023-01-16T06:32:31;12.63;;;0.93;;
66957;SDS011;53892;43.258;-2.932;2023-01-16T06:34:57;25.98;;;2.20;;
66957;SDS011;53892;43.258;-2.932;2023-01-16T06:37:24;22.20;;;2.33;;
66957;SDS011;53892;43.258;-2.932;2023-01-16T06:39:50;23.63;;;2.20;;
66957;SDS011;53892;43.258;-2.932;2023-01-16T06:42:16;40.72;;;3.08;;
66957;SDS011;53892;43.258;-2.932;2023-01-16T06:44:42;32.08;;;2.58;;
66957;SDS011;53892;43.258;-2.932;2023-01-16T06:47:08;27.02;;;2.17;;
66957;SDS011;53892;43.258;-2.932;2023-01-16T06:49:35;34.42;;;3.60;;
66957;SDS011;53892;43.258;-2.932;2023-01-16T06:52:01;44.55;;;6.05;;
66957;SDS011;53892;43.258;-2.932;2023-01-16T06:54:27;38.13;;;3.65;;
66957;SDS011;53892;43.258;-2.932;2023-01-16T06:56:53;31.83;;;2.55;;
66957;SDS011;53892;43.258;-2.932;2023-01-16T06:59:19;29.20;;;3.63;;
66957;SDS011;53892;43.258;-2.932;2023-01-16T07:01:45;35.95;;;4.68;;
66957;SDS011;53892;43.258;-2.932;2023-01-16T07:04:11;36.47;;;3.80;;
66957;SDS011;53892;43.258;-2.932;2023-01-16T07:06:37;24.80;;;3.00;;
66957;SDS011;53892;43.258;-2.932;2023-01-16T07:09:05;36.15;;;4.53;;
66957;SDS011;53892;43.258;-2.932;2023-01-16T07:11:31;43.78;;;4.40;;
66957;SDS011;53892;43.258;-2.932;2023-01-16T07:13:57;49.08;;;4.32;;
66957;SDS011;53892;43.258;-2.932;2023-01-16T07:16:42;38.00;;;4.47;;
66957;SDS011;53892;43.258;-2.932;2023-01-16T07:19:26;32.90;;;3.03;;
66957;SDS011;53892;43.258;-2.932;2023-01-16T07:22:11;39.97;;;4.38;;
66957;SDS011;53892;43.258;-2.932;2023-01-16T07:24:56;28.27;;;2.63;;
66957;SDS011;53892;43.258;-2.932;2023-01-16T07:27:23;41.55;;;4.13;;
66957;SDS011;53892;43.258;-2.932;2023-01-16T07:29:49;38.75;;;4.10;;
66957;SDS011;53892;43.258;-2.932;2023-01-16T07:32:16;42.40;;;4.55;;
66957;SDS011;53892;43.258;-2.932;2023-01-16T07:34:50;34.75;;;3.25;;
66957;SDS011;53892;43.258;-2.932;2023-01-16T07:37:17;53.47;;;5.22;;
66957;SDS011;53892;43.258;-2.932;2023-01-16T07:39:43;43.85;;;4.15;;
66957;SDS011;53892;43.258;-2.932;2023-01-16T07:44:58;36.40;;;3.20;;
66957;SDS011;53892;43.258;-2.932;2023-01-16T07:47:24;39.97;;;3.78;;
66957;SDS011;53892;43.258;-2.932;2023-01-16T07:49:50;20.05;;;2.03;;
66957;SDS011;53892;43.258;-2.932;2023-01-16T07:52:17;33.30;;;2.30;;
66957;SDS011;53892;43.258;-2.932;2023-01-16T07:54:43;26.42;;;2.25;;
66957;SDS011;53892;43.258;-2.932;2023-01-16T07:57:09;18.67;;;2.25;;
66957;SDS011;53892;43.258;-2.932;2023-01-16T07:59:38;22.88;;;2.67;;
66957;SDS011;53892;43.258;-2.932;2023-01-16T08:02:05;22.35;;;1.65;;
66957;SDS011;53892;43.258;-2.932;2023-01-16T08:04:31;18.77;;;1.60;;
66957;SDS011;53892;43.258;-2.932;2023-01-16T08:06:57;15.23;;;2.50;;
66957;SDS011;53892;43.258;-2.932;2023-01-16T08:09:23;18.25;;;1.80;;
66957;SDS011;53892;43.258;-2.932;2023-01-16T08:11:49;14.80;;;1.30;;
66957;SDS011;53892;43.258;-2.932;2023-01-16T08:14:16;22.38;;;2.05;;
66957;SDS011;53892;43.258;-2.932;2023-01-16T08:16:42;26.25;;;2.20;;
66957;SDS011;53892;43.258;-2.932;2023-01-16T08:19:08;17.92;;;2.15;;
66957;SDS011;53892;43.258;-2.932;2023-01-16T08:21:34;30.55;;;2.63;;
66957;SDS011;53892;43.258;-2.932;2023-01-16T08:24:00;25.80;;;1.67;;
66957;SDS011;53892;43.258;-2.932;2023-01-16T08:26:26;29.33;;;2.85;;
66957;SDS011;53892;43.258;-2.932;2023-01-16T08:28:54;24.88;;;2.75;;
66957;SDS011;53892;43.258;-2.932;2023-01-16T08:31:20;16.10;;;1.83;;
66957;SDS011;53892;43.258;-2.932;2023-01-16T08:33:55;19.90;;;1.67;;
66957;SDS011;53892;43.258;-2.932;2023-01-16T08:36:24;13.32;;;0.85;;
66957;SDS011;53892;43.258;-2.932;2023-01-16T08:38:50;26.58;;;3.30;;
66957;SDS011;53892;43.258;-2.932;2023-01-16T08:41:17;25.15;;;3.05;;
66957;SDS011;53892;43.258;-2.932;2023-01-16T08:44:05;21.52;;;2.28;;
66957;SDS011;53892;43.258;-2.932;2023-01-16T08:47:32;15.23;;;2.05;;
66957;SDS011;53892;43.258;-2.932;2023-01-16T08:49:57;20.02;;;1.48;;
66957;SDS011;53892;43.258;-2.932;2023-01-16T08:52:42;9.63;;;1.55;;
66957;SDS011;53892;43.258;-2.932;2023-01-16T08:55:09;16.33;;;1.77;;
66957;SDS011;53892;43.258;-2.932;2023-01-16T08:57:35;12.35;;;0.95;;
66957;SDS011;53892;43.258;-2.932;2023-01-16T09:00:02;15.10;;;0.95;;
66957;SDS011;53892;43.258;-2.932;2023-01-16T09:02:28;15.05;;;1.13;;
66957;SDS011;53892;43.258;-2.932;2023-01-16T09:04:54;19.80;;;1.67;;
66957;SDS011;53892;43.258;-2.932;2023-01-16T09:07:21;18.08;;;1.23;;
66957;SDS011;53892;43.258;-2.932;2023-01-16T09:09:47;15.88;;;1.40;;
66957;SDS011;53892;43.258;-2.932;2023-01-16T09:12:16;21.33;;;1.55;;
66957;SDS011;53892;43.258;-2.932;2023-01-16T09:15:01;31.73;;;2.15;;
66957;SDS011;53892;43.258;-2.932;2023-01-16T09:17:27;13.45;;;2.22;;
66957;SDS011;53892;43.258;-2.932;2023-01-16T09:19:54;22.02;;;1.98;;
66957;SDS011;53892;43.258;-2.932;2023-01-16T09:22:20;17.63;;;1.85;;
66957;SDS011;53892;43.258;-2.932;2023-01-16T09:24:46;18.10;;;2.65;;
66957;SDS011;53892;43.258;-2.932;2023-01-16T09:27:12;21.80;;;2.92;;
66957;SDS011;53892;43.258;-2.932;2023-01-16T09:29:39;26.42;;;1.67;;
66957;SDS011;53892;43.258;-2.932;2023-01-16T09:32:06;18.50;;;3.40;;
66957;SDS011;53892;43.258;-2.932;2023-01-16T09:34:37;24.73;;;2.08;;
66957;SDS011;53892;43.258;-2.932;2023-01-16T09:37:04;26.75;;;2.92;;
66957;SDS011;53892;43.258;-2.932;2023-01-16T09:39:30;26.08;;;2.40;;
66957;SDS011;53892;43.258;-2.932;2023-01-16T09:44:41;25.48;;;2.33;;
66957;SDS011;53892;43.258;-2.932;2023-01-16T09:47:09;25.33;;;2.38;;
66957;SDS011;53892;43.258;-2.932;2023-01-16T09:49:40;18.95;;;2.38;;
66957;SDS011;53892;43.258;-2.932;2023-01-16T09:52:11;19.70;;;1.52;;
66957;SDS011;53892;43.258;-2.932;2023-01-16T09:54:58;26.27;;;2.53;;
66957;SDS011;53892;43.258;-2.932;2023-01-16T09:58:07;16.92;;;1.88;;
66957;SDS011;53892;43.258;-2.932;2023-01-16T10:03:50;34.13;;;3.63;;
66957;SDS011;53892;43.258;-2.932;2023-01-16T10:06:35;25.02;;;2.88;;
66957;SDS011;53892;43.258;-2.932;2023-01-16T10:12:30;19.75;;;0.85;;
66957;SDS011;53892;43.258;-2.932;2023-01-16T10:15:09;11.73;;;1.52;;
66957;SDS011;53892;43.258;-2.932;2023-01-16T10:17:54;34.10;;;4.13;;
66957;SDS011;53892;43.258;-2.932;2023-01-16T10:25:22;14.82;;;1.13;;
66957;SDS011;53892;43.258;-2.932;2023-01-16T10:27:54;15.43;;;1.05;;
66957;SDS011;53892;43.258;-2.932;2023-01-16T10:30:35;20.85;;;2.90;;
66957;SDS011;53892;43.258;-2.932;2023-01-16T10:35:29;16.63;;;1.50;;
66957;SDS011;53892;43.258;-2.932;2023-01-16T10:37:59;15.82;;;1.85;;
66957;SDS011;53892;43.258;-2.932;2023-01-16T10:40:34;20.52;;;2.28;;
66957;SDS011;53892;43.258;-2.932;2023-01-16T10:43:12;22.40;;;1.70;;
66957;SDS011;53892;43.258;-2.932;2023-01-16T10:45:59;43.20;;;3.95;;
66957;SDS011;53892;43.258;-2.932;2023-01-16T10:48:47;29.70;;;2.80;;
66957;SDS011;53892;43.258;-2.932;2023-01-16T10:51:32;23.38;;;2.20;;
66957;SDS011;53892;43.258;-2.932;2023-01-16T10:53:59;19.67;;;1.88;;
66957;SDS011;53892;43.258;-2.932;2023-01-16T10:56:27;15.35;;;1.70;;
66957;SDS011;53892;43.258;-2.932;2023-01-16T10:58:54;22.98;;;2.38;;
66957;SDS011;53892;43.258;-2.932;2023-01-16T11:01:21;15.48;;;1.38;;
66957;SDS011;53892;43.258;-2.932;2023-01-16T11:03:49;16.08;;;2.50;;
66957;SDS011;53892;43.258;-2.932;2023-01-16T11:06:20;18.02;;;1.92;;
66957;SDS011;53892;43.258;-2.932;2023-01-16T11:08:48;23.60;;;2.55;;
66957;SDS011;53892;43.258;-2.932;2023-01-16T11:11:14;28.08;;;2.58;;
66957;SDS011;53892;43.258;-2.932;2023-01-16T11:14:00;26.88;;;1.90;;
66957;SDS011;53892;43.258;-2.932;2023-01-16T11:16:47;28.63;;;2.90;;
66957;SDS011;53892;43.258;-2.932;2023-01-16T11:19:39;26.15;;;1.77;;
66957;SDS011;53892;43.258;-2.932;2023-01-16T11:22:18;24.60;;;2.70;;
66957;SDS011;53892;43.258;-2.932;2023-01-16T11:24:46;22.42;;;2.78;;
66957;SDS011;53892;43.258;-2.932;2023-01-16T11:27:14;52.25;;;5.15;;
66957;SDS011;53892;43.258;-2.932;2023-01-16T11:29:43;35.83;;;3.45;;
66957;SDS011;53892;43.258;-2.932;2023-01-16T11:32:10;26.85;;;2.75;;
66957;SDS011;53892;43.258;-2.932;2023-01-16T11:34:38;38.13;;;3.65;;
66957;SDS011;53892;43.258;-2.932;2023-01-16T11:37:05;33.13;;;2.85;;
66957;SDS011;53892;43.258;-2.932;2023-01-16T11:39:33;34.70;;;3.80;;
66957;SDS011;53892;43.258;-2.932;2023-01-16T11:42:03;38.90;;;3.40;;
66957;SDS011;53892;43.258;-2.932;2023-01-16T11:44:49;33.47;;;2.75;;
66957;SDS011;53892;43.258;-2.932;2023-01-16T11:47:41;27.35;;;2.78;;
66957;SDS011;53892;43.258;-2.932;2023-01-16T11:50:28;39.97;;;4.85;;
66957;SDS011;53892;43.258;-2.932;2023-01-16T11:52:55;36.75;;;3.63;;
66957;SDS011;53892;43.258;-2.932;2023-01-16T11:55:21;35.67;;;2.58;;
66957;SDS011;53892;43.258;-2.932;2023-01-16T11:57:58;35.72;;;4.40;;
66957;SDS011;53892;43.258;-2.932;2023-01-16T12:03:05;59.08;;;4.43;;
66957;SDS011;53892;43.258;-2.932;2023-01-16T12:08:44;26.77;;;2.72;;
66957;SDS011;53892;43.258;-2.932;2023-01-16T12:13:41;22.55;;;2.17;;
66957;SDS011;53892;43.258;-2.932;2023-01-16T12:16:36;18.23;;;3.13;;
66957;SDS011;53892;43.258;-2.932;2023-01-16T12:24:13;32.35;;;2.70;;
66957;SDS011;53892;43.258;-2.932;2023-01-16T12:26:46;35.90;;;4.68;;
66957;SDS011;53892;43.258;-2.932;2023-01-16T12:31:49;30.13;;;2.77;;
66957;SDS011;53892;43.258;-2.932;2023-01-16T12:39:43;24.75;;;2.78;;
66957;SDS011;53892;43.258;-2.932;2023-01-16T12:53:42;33.08;;;2.75;;
66957;SDS011;53892;43.258;-2.932;2023-01-16T12:59:02;24.35;;;3.40;;
66957;SDS011;53892;43.258;-2.932;2023-01-16T13:01:34;23.67;;;2.60;;
66957;SDS011;53892;43.258;-2.932;2023-01-16T13:04:06;26.17;;;2.83;;
66957;SDS011;53892;43.258;-2.932;2023-01-16T13:09:18;34.28;;;3.40;;
66957;SDS011;53892;43.258;-2.932;2023-01-16T13:11:55;37.78;;;3.22;;
66957;SDS011;53892;43.258;-2.932;2023-01-16T13:14:42;32.30;;;3.27;;
66957;SDS011;53892;43.258;-2.932;2023-01-16T13:17:09;25.58;;;2.70;;
66957;SDS011;53892;43.258;-2.932;2023-01-16T13:19:40;32.47;;;2.72;;
66957;SDS011;53892;43.258;-2.932;2023-01-16T13:25:30;26.60;;;2.90;;
66957;SDS011;53892;43.258;-2.932;2023-01-16T13:27:40;32.95;;;4.05;;
66957;SDS011;53892;43.258;-2.932;2023-01-16T13:30:10;30.40;;;2.78;;
66957;SDS011;53892;43.258;-2.932;2023-01-16T13:32:41;37.70;;;4.75;;
66957;SDS011;53892;43.258;-2.932;2023-01-16T13:35:16;45.78;;;4.95;;
66957;SDS011;53892;43.258;-2.932;2023-01-16T13:40:23;34.65;;;3.88;;
66957;SDS011;53892;43.258;-2.932;2023-01-16T13:42:57;44.92;;;5.18;;
66957;SDS011;53892;43.258;-2.932;2023-01-16T13:45:44;35.60;;;4.18;;
66957;SDS011;53892;43.258;-2.932;2023-01-16T13:48:15;43.67;;;4.03;;
66957;SDS011;53892;43.258;-2.932;2023-01-16T13:50:44;61.65;;;6.63;;
66957;SDS011;53892;43.258;-2.932;2023-01-16T13:53:11;47.63;;;4.13;;
66957;SDS011;53892;43.258;-2.932;2023-01-16T13:55:39;42.38;;;5.32;;
66957;SDS011;53892;43.258;-2.932;2023-01-16T13:58:09;42.85;;;2.97;;
66957;SDS011;53892;43.258;-2.932;2023-01-16T14:00:46;20.63;;;2.25;;
66957;SDS011;53892;43.258;-2.932;2023-01-16T14:03:22;27.67;;;2.22;;
66957;SDS011;53892;43.258;-2.932;2023-01-16T14:05:50;41.40;;;3.28;;
66957;SDS011;53892;43.258;-2.932;2023-01-16T14:08:27;35.10;;;3.65;;
66957;SDS011;53892;43.258;-2.932;2023-01-16T14:13:42;33.70;;;2.78;;
66957;SDS011;53892;43.258;-2.932;2023-01-16T14:19:00;24.70;;;2.53;;
66957;SDS011;53892;43.258;-2.932;2023-01-16T14:21:29;44.22;;;3.95;;
66957;SDS011;53892;43.258;-2.932;2023-01-16T14:24:15;39.92;;;4.53;;
66957;SDS011;53892;43.258;-2.932;2023-01-16T14:27:02;34.58;;;3.80;;
66957;SDS011;53892;43.258;-2.932;2023-01-16T14:37:14;41.33;;;4.22;;
66957;SDS011;53892;43.258;-2.932;2023-01-16T14:39:48;26.65;;;2.38;;
66957;SDS011;53892;43.258;-2.932;2023-01-16T14:47:58;18.15;;;1.45;;
66957;SDS011;53892;43.258;-2.932;2023-01-16T14:50:51;19.00;;;1.38;;
66957;SDS011;53892;43.258;-2.932;2023-01-16T14:53:38;33.38;;;3.63;;
66957;SDS011;53892;43.258;-2.932;2023-01-16T14:56:26;40.03;;;2.45;;
66957;SDS011;53892;43.258;-2.932;2023-01-16T14:58:54;35.95;;;3.05;;
66957;SDS011;53892;43.258;-2.932;2023-01-16T15:01:27;14.43;;;2.35;;
66957;SDS011;53892;43.258;-2.932;2023-01-16T15:04:14;18.02;;;1.35;;
66957;SDS011;53892;43.258;-2.932;2023-01-16T15:06:48;9.63;;;1.35;;
66957;SDS011;53892;43.258;-2.932;2023-01-16T15:09:17;7.22;;;1.27;;
66957;SDS011;53892;43.258;-2.932;2023-01-16T15:11:46;7.82;;;1.67;;
66957;SDS011;53892;43.258;-2.932;2023-01-16T15:14:15;13.90;;;2.20;;
66957;SDS011;53892;43.258;-2.932;2023-01-16T15:16:52;7.30;;;2.30;;
66957;SDS011;53892;43.258;-2.932;2023-01-16T15:19:38;5.47;;;2.35;;
66957;SDS011;53892;43.258;-2.932;2023-01-16T15:22:36;5.55;;;2.10;;
66957;SDS011;53892;43.258;-2.932;2023-01-16T15:25:07;6.60;;;2.35;;
66957;SDS011;53892;43.258;-2.932;2023-01-16T15:27:38;7.10;;;2.08;;
66957;SDS011;53892;43.258;-2.932;2023-01-16T15:30:05;5.90;;;2.35;;
66957;SDS011;53892;43.258;-2.932;2023-01-16T15:33:11;4.22;;;2.28;;
66957;SDS011;53892;43.258;-2.932;2023-01-16T15:35:44;7.00;;;1.55;;
66957;SDS011;53892;43.258;-2.932;2023-01-16T15:38:19;2.97;;;1.63;;
66957;SDS011;53892;43.258;-2.932;2023-01-16T15:40:49;4.25;;;1.65;;
66957;SDS011;53892;43.258;-2.932;2023-01-16T15:43:16;10.70;;;1.23;;
66957;SDS011;53892;43.258;-2.932;2023-01-16T15:46:15;7.18;;;2.08;;
66957;SDS011;53892;43.258;-2.932;2023-01-16T15:49:13;6.20;;;1.70;;
66957;SDS011;53892;43.258;-2.932;2023-01-16T15:51:40;5.95;;;1.80;;
66957;SDS011;53892;43.258;-2.932;2023-01-16T15:54:10;7.03;;;1.58;;
66957;SDS011;53892;43.258;-2.932;2023-01-16T15:56:49;6.57;;;1.80;;
66957;SDS011;53892;43.258;-2.932;2023-01-16T15:59:25;7.30;;;1.75;;
66957;SDS011;53892;43.258;-2.932;2023-01-16T16:01:52;6.82;;;1.50;;
66957;SDS011;53892;43.258;-2.932;2023-01-16T16:04:18;5.05;;;1.50;;
66957;SDS011;53892;43.258;-2.932;2023-01-16T16:06:47;5.45;;;1.30;;
66957;SDS011;53892;43.258;-2.932;2023-01-16T16:09:16;6.85;;;1.67;;
66957;SDS011;53892;43.258;-2.932;2023-01-16T16:11:43;4.32;;;1.77;;
66957;SDS011;53892;43.258;-2.932;2023-01-16T16:14:30;4.57;;;2.28;;
66957;SDS011;53892;43.258;-2.932;2023-01-16T16:17:20;3.33;;;2.20;;
66957;SDS011;53892;43.258;-2.932;2023-01-16T16:22:50;4.35;;;2.42;;
66957;SDS011;53892;43.258;-2.932;2023-01-16T16:25:18;6.70;;;2.83;;
66957;SDS011;53892;43.258;-2.932;2023-01-16T16:27:47;4.57;;;2.65;;
66957;SDS011;53892;43.258;-2.932;2023-01-16T16:30:16;8.27;;;2.42;;
66957;SDS011;53892;43.258;-2.932;2023-01-16T16:32:44;4.28;;;2.38;;
66957;SDS011;53892;43.258;-2.932;2023-01-16T16:35:17;4.18;;;2.40;;
66957;SDS011;53892;43.258;-2.932;2023-01-16T16:37:45;9.00;;;2.25;;
66957;SDS011;53892;43.258;-2.932;2023-01-16T16:40:13;4.15;;;1.58;;
66957;SDS011;53892;43.258;-2.932;2023-01-16T16:47:38;4.07;;;1.50;;
66957;SDS011;53892;43.258;-2.932;2023-01-16T16:50:42;2.22;;;1.23;;
66957;SDS011;53892;43.258;-2.932;2023-01-16T16:53:04;5.95;;;1.15;;
66957;SDS011;53892;43.258;-2.932;2023-01-16T16:55:35;2.90;;;0.70;;
66957;SDS011;53892;43.258;-2.932;2023-01-16T16:58:04;2.72;;;1.45;;
66957;SDS011;53892;43.258;-2.932;2023-01-16T17:00:33;3.72;;;1.40;;
66957;SDS011;53892;43.258;-2.932;2023-01-16T17:03:06;2.35;;;1.25;;
66957;SDS011;53892;43.258;-2.932;2023-01-16T17:05:35;8.25;;;2.80;;
66957;SDS011;53892;43.258;-2.932;2023-01-16T17:08:01;5.05;;;2.65;;